CZFN/ZFN METAR and TAF weather

Enter ICAO airport designator
Station Type Date Time Source
CZFN METAR 2020/02/21 00:00 UTC NOAA

CZFN 210000Z VRB02KT 15SM FEW150 M01/M05 A2935 RMK AC1 S0 AFT 1600/56/SNW CVR/HARD PACK/LAST STFD OBS/NEXT 211600 SLP950


Station Type Date Time Source
CZFN Decoded METAR 2020/02/21 00:00 UTC NOAA

Fort Norman Airport, Canada (CZFN) 64-55N 125-34W
Feb 20, 2020 - 07:00 PM EST / 2020.02.21 0000 UTC
Wind: Variable at 2 MPH (2 KT):0
Visibility: 15 mile(s):0
Sky conditions: mostly clear
Temperature: 30 F (-1 C)
Dew Point: 23 F (-5 C)
Relative Humidity: 74%
Pressure (altimeter): 29.35 in. Hg (993 hPa)
ob: CZFN 210000Z VRB02KT 15SM FEW150 M01/M05 A2935 RMK AC1 S0 AFT 1600/56/SNW CVR/HARD PACK/LAST STFD OBS/NEXT 211600 SLP950
cycle: 0

Station Type Date Time Source
CZFN TAF UTC NOAA

Error!

Example: see airport list